createdAt,value
2017-08-30T00:01:11.872Z,45.40
2017-08-30T00:03:39.426Z,45.30
2017-08-30T00:06:06.962Z,45.20
2017-08-30T00:08:34.486Z,45.20
2017-08-30T00:11:02.018Z,44.90
2017-08-30T00:13:29.546Z,45.30
2017-08-30T00:15:57.093Z,45.40
2017-08-30T00:18:24.618Z,45.60
2017-08-30T00:20:52.145Z,45.60
2017-08-30T00:23:19.678Z,46.30
2017-08-30T00:26:13.964Z,46.70
2017-08-30T00:28:41.490Z,46.70
2017-08-30T00:31:09.018Z,46.60
2017-08-30T00:33:36.573Z,46.40
2017-08-30T00:36:04.174Z,46.50
2017-08-30T00:38:31.702Z,47.20
2017-08-30T00:40:59.238Z,47.10
2017-08-30T00:43:26.857Z,47.20
2017-08-30T00:45:54.418Z,47.50
2017-08-30T00:48:21.942Z,47.50
2017-08-30T00:50:49.471Z,47.40
2017-08-30T00:53:17.012Z,47.30
2017-08-30T00:55:44.669Z,47.20
2017-08-30T00:58:12.218Z,47.40
2017-08-30T01:00:39.745Z,47.60
2017-08-30T01:03:07.270Z,47.70
2017-08-30T01:05:35.593Z,47.60
2017-08-30T01:08:03.126Z,47.50
2017-08-30T01:10:30.738Z,47.80
2017-08-30T01:12:58.378Z,47.90
2017-08-30T01:15:25.906Z,48.00
2017-08-30T01:17:53.437Z,48.00
2017-08-30T01:20:21.055Z,48.00
2017-08-30T01:22:48.610Z,48.00
2017-08-30T01:25:16.142Z,47.90
2017-08-30T01:27:43.678Z,48.00
2017-08-30T01:30:11.285Z,48.00
2017-08-30T01:32:38.823Z,48.00
2017-08-30T01:35:11.271Z,48.30
2017-08-30T01:37:41.091Z,48.10
2017-08-30T01:40:09.327Z,48.60
2017-08-30T01:42:36.854Z,48.10
2017-08-30T01:45:04.383Z,48.10
2017-08-30T01:47:31.956Z,48.50
2017-08-30T01:49:59.486Z,48.80
2017-08-30T01:52:27.060Z,48.90
2017-08-30T01:54:54.663Z,50.00
2017-08-30T01:57:22.222Z,49.40
2017-08-30T01:59:49.750Z,49.70
2017-08-30T02:02:17.274Z,49.70
2017-08-30T02:04:44.825Z,49.60
2017-08-30T02:07:12.345Z,49.70
2017-08-30T02:09:39.866Z,49.70
2017-08-30T02:12:07.397Z,49.70
2017-08-30T02:14:34.925Z,49.90
2017-08-30T02:17:02.478Z,50.00
2017-08-30T02:19:30.006Z,50.10
2017-08-30T02:21:57.619Z,50.70
2017-08-30T02:24:25.266Z,50.70
2017-08-30T02:26:52.798Z,50.60
2017-08-30T02:29:20.361Z,50.30
2017-08-30T02:31:47.941Z,50.50
2017-08-30T02:34:15.508Z,50.70
2017-08-30T02:36:43.036Z,50.50
2017-08-30T02:39:10.565Z,50.80
2017-08-30T02:41:38.130Z,51.00
2017-08-30T02:44:05.662Z,50.90
2017-08-30T02:46:33.202Z,50.70
2017-08-30T02:49:00.749Z,50.70
2017-08-30T02:51:28.277Z,50.80
2017-08-30T02:53:55.836Z,51.40
2017-08-30T02:56:23.362Z,51.30
2017-08-30T02:58:50.898Z,51.50
2017-08-30T03:01:18.431Z,51.70
2017-08-30T03:03:45.977Z,51.70
2017-08-30T03:06:13.529Z,51.40
2017-08-30T03:08:41.118Z,51.10
2017-08-30T03:11:08.648Z,51.80
2017-08-30T03:13:36.194Z,51.80
2017-08-30T03:16:03.717Z,51.70
2017-08-30T03:18:31.266Z,51.70
2017-08-30T03:20:58.792Z,51.90
2017-08-30T03:23:26.318Z,51.90
2017-08-30T03:25:53.837Z,52.20
2017-08-30T03:28:21.357Z,52.20
2017-08-30T03:30:48.918Z,51.90
2017-08-30T03:33:16.441Z,51.80
2017-08-30T03:35:43.969Z,51.70
2017-08-30T03:38:11.508Z,51.90
2017-08-30T03:40:39.036Z,51.80
2017-08-30T03:43:07.361Z,51.90
2017-08-30T03:45:34.878Z,51.90
2017-08-30T03:48:02.466Z,52.20
2017-08-30T03:50:30.030Z,52.20
2017-08-30T03:52:57.614Z,52.30
2017-08-30T03:55:25.169Z,52.40
2017-08-30T03:57:52.691Z,52.30
2017-08-30T04:00:20.219Z,52.90
2017-08-30T04:02:47.765Z,52.40
2017-08-30T04:05:15.289Z,52.60
2017-08-30T04:07:43.254Z,53.30
2017-08-30T04:10:10.782Z,53.30
2017-08-30T04:12:38.346Z,53.50
2017-08-30T04:15:05.869Z,53.40
2017-08-30T04:17:33.407Z,53.30
2017-08-30T04:20:00.962Z,53.20
2017-08-30T04:22:28.490Z,53.60
2017-08-30T04:24:56.063Z,53.50
2017-08-30T04:27:23.590Z,53.50
2017-08-30T04:29:51.131Z,53.50
2017-08-30T04:32:18.690Z,53.50
2017-08-30T04:34:46.220Z,53.70
2017-08-30T04:37:13.764Z,53.40
2017-08-30T04:39:41.410Z,53.70
2017-08-30T04:42:08.950Z,53.60
2017-08-30T04:44:36.716Z,53.70
2017-08-30T04:47:04.245Z,53.60
2017-08-30T04:49:31.779Z,53.50
2017-08-30T04:51:59.308Z,53.70
2017-08-30T04:54:26.833Z,53.50
2017-08-30T04:56:54.381Z,53.40
2017-08-30T04:59:21.936Z,53.50
2017-08-30T05:01:49.479Z,53.30
2017-08-30T05:04:17.001Z,52.50
2017-08-30T05:06:44.529Z,52.50
2017-08-30T05:09:12.116Z,52.80
2017-08-30T05:11:39.650Z,52.60
2017-08-30T05:14:07.245Z,52.50
2017-08-30T05:16:34.773Z,52.30
2017-08-30T05:19:02.305Z,52.10
2017-08-30T05:21:29.859Z,51.90
2017-08-30T05:23:57.389Z,52.00
2017-08-30T05:26:24.924Z,51.60
2017-08-30T05:28:52.453Z,51.40
2017-08-30T05:31:19.994Z,51.80
2017-08-30T05:33:47.542Z,51.60
2017-08-30T05:36:15.354Z,51.60
2017-08-30T05:38:42.877Z,51.40
2017-08-30T05:41:10.393Z,51.50
2017-08-30T05:43:37.927Z,51.20
2017-08-30T05:46:05.478Z,50.90
2017-08-30T05:48:33.050Z,50.80
2017-08-30T05:51:00.582Z,50.70
2017-08-30T05:53:28.107Z,50.60
2017-08-30T05:55:55.630Z,50.20
2017-08-30T05:58:23.398Z,50.10
2017-08-30T06:00:50.921Z,50.20
2017-08-30T06:03:18.450Z,50.10
2017-08-30T06:05:49.523Z,50.00
2017-08-30T06:11:06.798Z,49.30
2017-08-30T06:13:34.321Z,49.50
2017-08-30T06:16:01.854Z,49.40
2017-08-30T06:18:29.382Z,49.70
2017-08-30T06:20:56.905Z,49.70
2017-08-30T06:23:24.465Z,49.40
2017-08-30T06:25:51.993Z,48.40
2017-08-30T06:28:19.593Z,49.10
2017-08-30T06:30:47.117Z,48.80
2017-08-30T06:33:14.647Z,49.10
2017-08-30T06:35:42.221Z,48.40
2017-08-30T06:38:09.750Z,48.40
2017-08-30T06:40:37.304Z,48.80
2017-08-30T06:43:04.830Z,47.40
2017-08-30T06:45:32.354Z,47.00
2017-08-30T06:48:00.690Z,47.10
2017-08-30T06:50:28.217Z,47.10
2017-08-30T06:52:55.753Z,47.50
2017-08-30T06:55:23.273Z,47.90
2017-08-30T06:57:50.801Z,47.10
2017-08-30T07:00:18.363Z,47.20
2017-08-30T07:02:45.929Z,48.00
2017-08-30T07:05:13.453Z,47.50
2017-08-30T07:07:40.978Z,48.00
2017-08-30T07:10:08.505Z,48.40
2017-08-30T07:12:36.069Z,48.30
2017-08-30T07:15:03.627Z,48.00
2017-08-30T07:17:31.154Z,47.60
2017-08-30T07:19:58.678Z,47.70
2017-08-30T07:22:26.205Z,48.10
2017-08-30T07:24:53.763Z,47.60
2017-08-30T07:27:22.083Z,47.00
2017-08-30T07:29:49.694Z,47.00
2017-08-30T07:32:17.238Z,46.90
2017-08-30T07:34:44.762Z,46.50
2017-08-30T07:37:12.320Z,46.10
2017-08-30T07:39:39.851Z,46.40
2017-08-30T07:42:07.390Z,46.40
2017-08-30T07:44:34.917Z,45.90
2017-08-30T07:47:02.462Z,45.30
2017-08-30T07:49:30.061Z,45.30
2017-08-30T07:51:57.595Z,45.10
2017-08-30T07:54:25.130Z,45.40
2017-08-30T07:56:52.661Z,46.50
2017-08-30T07:59:20.187Z,45.80
2017-08-30T08:01:47.745Z,45.90
2017-08-30T08:04:15.280Z,44.90
2017-08-30T08:06:42.805Z,45.80
2017-08-30T08:15:57.046Z,45.10
2017-08-30T08:18:24.566Z,44.80
2017-08-30T08:20:52.182Z,44.40
2017-08-30T08:23:19.706Z,44.10
2017-08-30T08:25:47.296Z,44.20
2017-08-30T08:28:14.826Z,42.30
2017-08-30T08:30:42.351Z,42.80
2017-08-30T08:33:09.899Z,42.80
2017-08-30T08:35:37.538Z,40.70
2017-08-30T08:38:05.070Z,40.80
2017-08-30T08:40:32.582Z,39.50
2017-08-30T08:43:01.093Z,40.20
2017-08-30T08:45:28.658Z,39.70
2017-08-30T08:47:56.182Z,40.50
2017-08-30T08:50:23.706Z,38.50
2017-08-30T08:52:51.233Z,39.30
2017-08-30T08:55:18.765Z,38.70
2017-08-30T08:57:46.322Z,38.90
2017-08-30T09:00:13.867Z,39.30
2017-08-30T09:02:41.392Z,38.80
2017-08-30T09:05:08.910Z,39.10
2017-08-30T09:07:36.442Z,37.70
2017-08-30T09:10:03.994Z,37.80
2017-08-30T09:12:31.533Z,37.90
2017-08-30T09:14:59.058Z,37.00
2017-08-30T09:17:27.346Z,36.70
2017-08-30T09:19:54.870Z,36.60
2017-08-30T09:22:22.450Z,36.50
2017-08-30T09:24:49.970Z,38.00
2017-08-30T09:27:17.494Z,37.00
2017-08-30T09:29:45.062Z,35.20
2017-08-30T09:32:12.581Z,35.00
2017-08-30T09:34:40.386Z,35.20
2017-08-30T09:37:07.950Z,34.10
2017-08-30T09:39:35.475Z,34.40
2017-08-30T09:42:03.001Z,34.00
2017-08-30T09:44:30.638Z,33.50
2017-08-30T09:46:58.190Z,33.40
2017-08-30T09:49:25.710Z,33.60
2017-08-30T09:51:53.242Z,33.50
2017-08-30T09:54:20.773Z,33.50
2017-08-30T09:56:48.314Z,33.30
2017-08-30T09:59:15.854Z,32.60
2017-08-30T10:01:43.374Z,32.80
2017-08-30T10:04:10.898Z,31.70
2017-08-30T10:06:38.418Z,31.30
2017-08-30T10:09:05.997Z,31.00
2017-08-30T10:11:33.555Z,31.40
2017-08-30T10:14:01.079Z,31.30
2017-08-30T10:16:29.370Z,30.40
2017-08-30T10:18:56.890Z,30.40
2017-08-30T10:21:24.417Z,31.10
2017-08-30T10:23:51.963Z,30.00
2017-08-30T10:26:19.485Z,29.70
2017-08-30T10:28:47.001Z,29.60
2017-08-30T10:31:14.517Z,30.10
2017-08-30T10:33:42.045Z,29.30
2017-08-30T10:36:09.606Z,30.00
2017-08-30T10:38:37.136Z,27.90
2017-08-30T10:41:04.675Z,28.10
2017-08-30T10:43:32.205Z,27.90
2017-08-30T10:45:59.726Z,27.10
2017-08-30T10:48:27.279Z,27.30
2017-08-30T10:50:54.800Z,27.10
2017-08-30T10:53:22.329Z,27.60
2017-08-30T10:55:49.846Z,26.00
2017-08-30T10:58:17.379Z,26.90
2017-08-30T11:00:44.930Z,26.30
2017-08-30T11:03:12.448Z,26.70
2017-08-30T11:05:39.970Z,25.80
2017-08-30T11:08:07.498Z,25.90
2017-08-30T11:10:35.858Z,26.20
2017-08-30T11:13:03.402Z,25.90
2017-08-30T11:15:30.918Z,24.90
2017-08-30T11:17:58.477Z,25.40
2017-08-30T11:20:25.999Z,25.10
2017-08-30T11:22:53.521Z,24.60
2017-08-30T11:25:21.063Z,23.80
2017-08-30T11:27:48.586Z,23.50
2017-08-30T11:30:16.116Z,22.80
2017-08-30T11:32:43.637Z,23.50
2017-08-30T11:35:11.153Z,22.40
2017-08-30T11:37:38.712Z,22.40
2017-08-30T11:40:06.247Z,22.30
2017-08-30T11:42:33.782Z,21.80
2017-08-30T11:45:01.309Z,21.20
2017-08-30T11:47:28.837Z,20.40
2017-08-30T11:49:56.390Z,19.60
2017-08-30T11:52:23.915Z,19.30
2017-08-30T11:54:51.647Z,19.00
2017-08-30T11:57:19.218Z,19.20
2017-08-30T11:59:46.747Z,18.10
2017-08-30T12:02:14.284Z,17.90
2017-08-30T12:04:41.807Z,17.80
2017-08-30T12:07:09.329Z,16.30
2017-08-30T12:09:36.865Z,16.60
2017-08-30T12:12:04.599Z,16.40
2017-08-30T12:14:32.117Z,15.80
2017-08-30T12:16:59.638Z,15.80
2017-08-30T12:19:27.166Z,15.40
2017-08-30T12:21:54.694Z,15.60
2017-08-30T12:24:22.223Z,15.20
2017-08-30T12:26:49.746Z,14.60
2017-08-30T12:29:17.273Z,14.90
2017-08-30T12:31:44.794Z,14.40
2017-08-30T12:34:12.321Z,14.40
2017-08-30T12:36:45.649Z,14.40
2017-08-30T12:39:18.797Z,14.50
2017-08-30T12:41:46.326Z,13.90
2017-08-30T12:44:13.858Z,13.70
2017-08-30T12:46:41.390Z,13.60
2017-08-30T12:49:08.913Z,13.50
2017-08-30T12:51:36.448Z,14.00
2017-08-30T12:54:03.965Z,13.60
2017-08-30T12:56:31.517Z,13.60
2017-08-30T12:58:59.047Z,13.40
2017-08-30T13:01:26.578Z,13.30
2017-08-30T13:03:54.126Z,12.90
2017-08-30T13:06:21.650Z,13.40
2017-08-30T13:08:49.170Z,13.50
2017-08-30T13:11:16.727Z,13.10
2017-08-30T13:13:44.249Z,12.90
2017-08-30T13:16:11.770Z,12.80
2017-08-30T13:18:39.313Z,12.90
2017-08-30T13:21:06.862Z,12.80
2017-08-30T13:23:34.389Z,13.20
2017-08-30T13:26:01.943Z,12.70
2017-08-30T13:28:29.549Z,13.00
2017-08-30T13:30:57.070Z,12.80
2017-08-30T13:33:25.422Z,13.40
2017-08-30T13:35:52.941Z,13.40
2017-08-30T13:38:20.469Z,13.00
2017-08-30T13:40:48.370Z,13.00
2017-08-30T13:43:15.902Z,13.00
2017-08-30T13:45:43.425Z,13.20
2017-08-30T13:48:10.980Z,12.30
2017-08-30T13:50:38.497Z,12.50
2017-08-30T13:53:06.014Z,12.50
2017-08-30T13:55:33.538Z,12.50
2017-08-30T13:58:01.064Z,12.50
2017-08-30T14:00:28.837Z,12.20
2017-08-30T14:02:56.362Z,12.00
2017-08-30T14:05:23.891Z,12.30
2017-08-30T14:07:51.426Z,13.00
2017-08-30T14:10:18.941Z,12.60
2017-08-30T14:12:46.623Z,12.60
2017-08-30T14:15:14.146Z,12.30
2017-08-30T14:17:41.678Z,12.60
2017-08-30T14:20:09.194Z,12.30
2017-08-30T14:22:36.720Z,12.40
2017-08-30T14:25:04.279Z,13.00
2017-08-30T14:27:31.911Z,12.80
2017-08-30T14:29:59.425Z,13.10
2017-08-30T14:32:27.079Z,13.40
2017-08-30T14:34:54.605Z,13.10
2017-08-30T14:37:22.158Z,12.90
2017-08-30T14:39:49.683Z,13.10
2017-08-30T14:42:17.201Z,13.00
2017-08-30T14:44:44.722Z,13.00
2017-08-30T14:47:12.251Z,12.80
2017-08-30T14:49:39.806Z,12.70
2017-08-30T14:52:08.415Z,13.20
2017-08-30T14:54:35.942Z,13.70
2017-08-30T14:57:03.495Z,13.20
2017-08-30T14:59:31.021Z,13.00
2017-08-30T15:01:58.598Z,12.90
2017-08-30T15:04:26.121Z,13.20
2017-08-30T15:06:53.647Z,13.50
2017-08-30T15:09:21.818Z,13.30
2017-08-30T15:11:49.481Z,13.30
2017-08-30T15:14:17.035Z,13.50
2017-08-30T15:16:44.569Z,13.50
2017-08-30T15:19:12.109Z,13.60
2017-08-30T15:21:39.634Z,13.60
2017-08-30T15:24:07.162Z,13.50
2017-08-30T15:26:34.715Z,13.40
2017-08-30T15:29:02.270Z,13.40
2017-08-30T15:31:29.801Z,13.80
2017-08-30T15:33:57.325Z,13.70
2017-08-30T15:36:24.853Z,13.50
2017-08-30T15:38:52.411Z,13.80
2017-08-30T15:41:19.939Z,14.00
2017-08-30T15:43:47.469Z,14.00
2017-08-30T15:46:15.014Z,14.30
2017-08-30T15:48:42.550Z,14.30
2017-08-30T15:51:10.115Z,14.70
2017-08-30T15:53:37.641Z,14.90
2017-08-30T15:56:05.184Z,15.00
2017-08-30T15:58:32.725Z,15.30
2017-08-30T16:01:00.257Z,15.90
2017-08-30T16:03:27.813Z,16.20
2017-08-30T16:05:55.339Z,16.50
2017-08-30T16:08:22.878Z,17.00
2017-08-30T16:10:50.402Z,16.40
2017-08-30T16:13:17.934Z,16.90
2017-08-30T16:15:45.522Z,17.60
2017-08-30T16:18:13.058Z,18.00
2017-08-30T16:20:40.602Z,19.50
2017-08-30T16:23:08.130Z,20.00
2017-08-30T16:25:35.663Z,21.10
2017-08-30T16:28:03.221Z,21.80
2017-08-30T16:30:30.759Z,21.60
2017-08-30T16:32:58.282Z,22.00
2017-08-30T16:35:25.805Z,22.70
2017-08-30T16:37:53.374Z,22.80
2017-08-30T16:40:20.938Z,23.10
2017-08-30T16:42:48.470Z,23.20
2017-08-30T16:45:15.989Z,23.60
2017-08-30T16:47:43.581Z,23.40
2017-08-30T16:50:11.106Z,23.80
2017-08-30T16:52:38.662Z,23.80
2017-08-30T16:55:06.201Z,23.90
2017-08-30T16:57:33.738Z,23.90
2017-08-30T17:00:01.274Z,24.90
2017-08-30T17:02:28.824Z,24.00
2017-08-30T17:04:56.392Z,24.40
2017-08-30T17:07:23.942Z,24.20
2017-08-30T17:09:51.467Z,24.50
2017-08-30T17:12:19.002Z,24.30
2017-08-30T17:14:46.536Z,24.50
2017-08-30T17:17:14.091Z,24.70
2017-08-30T17:19:41.618Z,24.80
2017-08-30T17:22:09.204Z,24.70
2017-08-30T17:24:36.758Z,24.50
2017-08-30T17:27:04.289Z,24.80
2017-08-30T17:29:31.857Z,24.90
2017-08-30T17:31:59.382Z,24.90
2017-08-30T17:34:26.914Z,24.90
2017-08-30T17:36:54.441Z,25.00
2017-08-30T17:39:21.968Z,25.20
2017-08-30T17:41:49.585Z,25.10
2017-08-30T17:44:17.116Z,25.10
2017-08-30T17:46:44.641Z,25.40
2017-08-30T17:49:12.166Z,25.50
2017-08-30T17:51:39.694Z,25.90
2017-08-30T17:54:07.246Z,25.50
2017-08-30T17:56:34.770Z,25.90
2017-08-30T17:59:02.300Z,25.90
2017-08-30T18:01:29.826Z,25.90
2017-08-30T18:03:57.353Z,25.80
2017-08-30T18:06:25.676Z,26.20
2017-08-30T18:08:53.224Z,26.20
2017-08-30T18:11:20.752Z,26.40
2017-08-30T18:13:48.273Z,26.40
2017-08-30T18:16:15.802Z,26.50
2017-08-30T18:18:43.364Z,26.50
2017-08-30T18:21:10.895Z,26.60
2017-08-30T18:23:38.426Z,26.80
2017-08-30T18:26:05.954Z,26.60
2017-08-30T18:28:33.606Z,26.60
2017-08-30T18:31:01.166Z,26.40
2017-08-30T18:33:28.692Z,26.40
2017-08-30T18:35:56.233Z,26.30
2017-08-30T18:38:23.842Z,26.50
2017-08-30T18:40:51.366Z,26.20
2017-08-30T18:43:18.939Z,26.50
2017-08-30T18:45:46.465Z,26.50
2017-08-30T18:48:13.994Z,26.60
2017-08-30T18:50:41.522Z,26.50
2017-08-30T18:53:09.049Z,26.90
2017-08-30T18:55:36.597Z,26.90
2017-08-30T18:58:04.142Z,27.10
2017-08-30T19:00:31.674Z,27.10
2017-08-30T19:02:59.206Z,27.70
2017-08-30T19:05:26.734Z,27.30
2017-08-30T19:07:54.289Z,27.50
2017-08-30T19:10:21.819Z,27.60
2017-08-30T19:12:49.361Z,27.50
2017-08-30T19:15:16.889Z,27.60
2017-08-30T19:17:44.425Z,27.50
2017-08-30T19:20:12.026Z,27.70
2017-08-30T19:22:39.553Z,27.70
2017-08-30T19:25:07.078Z,27.50
2017-08-30T19:27:34.608Z,27.70
2017-08-30T19:30:02.139Z,27.60
2017-08-30T19:32:29.695Z,27.70
2017-08-30T19:34:57.302Z,27.70
2017-08-30T19:37:24.837Z,27.70
2017-08-30T19:39:52.367Z,28.00
2017-08-30T19:42:19.905Z,28.00
2017-08-30T19:44:47.458Z,28.20
2017-08-30T19:47:15.019Z,28.30
2017-08-30T19:49:42.541Z,28.30
2017-08-30T19:52:10.069Z,28.90
2017-08-30T19:54:37.593Z,29.00
2017-08-30T19:57:05.146Z,29.00
2017-08-30T19:59:32.670Z,29.20
2017-08-30T20:02:00.212Z,29.20
2017-08-30T20:04:27.740Z,29.40
2017-08-30T20:06:55.275Z,29.40
2017-08-30T20:09:22.833Z,29.60
2017-08-30T20:11:50.366Z,29.80
2017-08-30T20:14:17.898Z,30.00
2017-08-30T20:16:45.426Z,30.30
2017-08-30T20:19:12.953Z,30.50
2017-08-30T20:21:40.510Z,31.20
2017-08-30T20:24:08.061Z,31.30
2017-08-30T20:26:35.589Z,31.50
2017-08-30T20:29:03.158Z,32.20
2017-08-30T20:31:30.689Z,33.20
2017-08-30T20:33:58.282Z,33.70
2017-08-30T20:36:25.838Z,34.20
2017-08-30T20:38:53.410Z,34.70
2017-08-30T20:41:20.942Z,34.50
2017-08-30T20:43:48.475Z,34.50
2017-08-30T20:46:16.026Z,34.70
2017-08-30T20:48:43.549Z,34.80
2017-08-30T20:51:11.070Z,35.20
2017-08-30T20:53:38.597Z,35.70
2017-08-30T20:56:06.214Z,35.80
2017-08-30T20:58:33.781Z,37.10
2017-08-30T21:01:01.318Z,36.90
2017-08-30T21:03:28.846Z,37.10
2017-08-30T21:05:56.380Z,36.80
2017-08-30T21:08:23.952Z,37.50
2017-08-30T21:10:51.571Z,38.00
2017-08-30T21:13:19.094Z,39.30
2017-08-30T21:15:46.678Z,39.00
2017-08-30T21:18:14.245Z,39.00
2017-08-30T21:20:41.815Z,39.10
2017-08-30T21:23:09.415Z,39.60
2017-08-30T21:25:36.986Z,39.80
2017-08-30T21:28:04.544Z,40.10
2017-08-30T21:30:32.097Z,40.10
2017-08-30T21:32:59.729Z,39.80
2017-08-30T21:35:27.577Z,39.90
2017-08-30T21:37:55.181Z,40.30
2017-08-30T21:40:22.766Z,40.80
2017-08-30T21:42:50.599Z,41.50
2017-08-30T21:45:18.184Z,40.70
2017-08-30T21:47:45.963Z,40.40
2017-08-30T21:50:13.633Z,40.70
2017-08-30T21:52:41.169Z,40.50
2017-08-30T21:55:08.830Z,40.20
2017-08-30T21:57:36.353Z,40.30
2017-08-30T22:00:03.905Z,40.50
2017-08-30T22:02:31.430Z,40.70
2017-08-30T22:04:58.981Z,40.30
2017-08-30T22:07:26.514Z,40.10
2017-08-30T22:09:54.046Z,39.90
2017-08-30T22:12:21.601Z,40.00
2017-08-30T22:14:49.139Z,40.00
2017-08-30T22:17:16.661Z,40.60
2017-08-30T22:19:44.190Z,41.30
2017-08-30T22:22:11.734Z,42.20
2017-08-30T22:24:39.294Z,42.50
2017-08-30T22:27:06.826Z,42.50
2017-08-30T22:29:34.349Z,42.60
2017-08-30T22:32:01.934Z,42.70
2017-08-30T22:34:29.449Z,42.80
2017-08-30T22:36:57.776Z,43.00
2017-08-30T22:39:26.070Z,42.90
2017-08-30T22:41:53.609Z,42.80
2017-08-30T22:44:21.137Z,42.80
2017-08-30T22:46:48.722Z,42.80
2017-08-30T22:49:16.288Z,42.80
2017-08-30T22:51:43.822Z,43.10
2017-08-30T22:54:11.342Z,43.10
2017-08-30T22:56:39.647Z,43.00
2017-08-30T22:59:07.183Z,43.00
2017-08-30T23:01:34.737Z,43.10
2017-08-30T23:04:02.350Z,42.80
2017-08-30T23:06:29.880Z,42.80
2017-08-30T23:08:58.171Z,42.70
2017-08-30T23:11:25.697Z,42.70
2017-08-30T23:13:54.119Z,42.90
2017-08-30T23:16:21.642Z,42.80
2017-08-30T23:18:49.161Z,43.10
2017-08-30T23:21:16.678Z,42.90
2017-08-30T23:23:44.205Z,42.80
2017-08-30T23:26:11.757Z,42.60
2017-08-30T23:28:39.282Z,42.00
2017-08-30T23:31:06.811Z,41.90
2017-08-30T23:33:34.347Z,41.80
2017-08-30T23:36:01.877Z,41.40
2017-08-30T23:38:29.435Z,41.20
2017-08-30T23:40:56.970Z,41.20
2017-08-30T23:43:24.493Z,41.40
2017-08-30T23:45:52.021Z,41.40
2017-08-30T23:48:19.546Z,41.40
2017-08-30T23:50:47.101Z,41.50
2017-08-30T23:53:17.578Z,41.50
2017-08-30T23:55:45.097Z,41.70
2017-08-30T23:58:14.570Z,42.10
